Time;durP1;ratioP1;P1;durP2;ratioP2;P2;SDS_P1;SDS_P2;PMS_P1;PMS_P2;Temp;Humidity;BMP_temperature;BMP_pressure;BME280_temperature;BME280_humidity;BME280_pressure;Samples;Min_cycle;Max_cycle;Signal;HPM_P1;HPM_P2
2022/07/13 00:01:11;;;;;;;2.45;1.80;;;;;15.40;97095.00;;;;8336955;28;20604;-66
2022/07/13 00:05:14;;;;;;;1.58;1.50;;;;;15.40;97097.00;;;;8317271;28;20240;-66
2022/07/13 00:09:17;;;;;;;3.60;1.95;;;;;15.30;97086.00;;;;8339206;28;20260;-66
2022/07/13 00:13:20;;;;;;;2.00;1.90;;;;;15.20;97087.00;;;;8322008;28;20680;-66
2022/07/13 00:17:25;;;;;;;2.15;1.95;;;;;15.20;97080.00;;;;8319065;28;20225;-66
2022/07/13 00:21:28;;;;;;;1.88;1.77;;;;;15.10;97069.00;;;;8323402;28;20257;-67
2022/07/13 00:25:34;;;;;;;2.45;1.90;;;;;15.10;97070.00;;;;8323883;28;20224;-67
2022/07/13 00:29:37;;;;;;;2.55;2.35;;;;;15.10;97064.00;;;;8316761;28;20315;-67
2022/07/13 00:33:42;;;;;;;2.28;2.00;;;;;15.00;97073.00;;;;8325671;28;20718;-67
2022/07/13 00:37:45;;;;;;;2.20;2.00;;;;;15.00;97073.00;;;;8312560;28;20229;-67
2022/07/13 00:41:49;;;;;;;2.10;1.90;;;;;15.00;97072.00;;;;8341991;28;20867;-67
2022/07/13 00:45:53;;;;;;;4.55;1.70;;;;;14.90;97074.00;;;;8312012;28;20235;-67
2022/07/13 00:49:58;;;;;;;1.88;1.73;;;;;14.90;97071.00;;;;8319142;28;20227;-67
2022/07/13 00:54:02;;;;;;;2.00;1.90;;;;;14.90;97065.00;;;;8322398;28;20718;-67
2022/07/13 00:58:05;;;;;;;4.47;2.10;;;;;14.80;97067.00;;;;8315925;28;20761;-66
2022/07/13 01:02:08;;;;;;;1.98;1.88;;;;;14.50;97069.00;;;;8321951;28;20237;-66
2022/07/13 01:06:13;;;;;;;3.70;2.20;;;;;14.50;97062.00;;;;8317102;28;20235;-66
2022/07/13 01:10:17;;;;;;;2.58;2.38;;;;;14.30;97059.00;;;;8320043;28;20263;-66
2022/07/13 01:14:21;;;;;;;3.63;2.10;;;;;14.30;97058.00;;;;8314876;28;20235;-67
2022/07/13 01:18:24;;;;;;;2.40;2.03;;;;;14.10;97067.00;;;;8315372;28;20256;-65
2022/07/13 01:22:35;;;;;;;2.10;2.00;;;;;14.10;97065.00;;;;8307674;28;20236;-66
2022/07/13 01:26:41;;;;;;;2.42;2.15;;;;;14.00;97063.00;;;;8327821;28;20257;-66
2022/07/13 01:30:44;;;;;;;4.00;2.17;;;;;14.00;97054.00;;;;8313472;28;20223;-67
2022/07/13 01:34:47;;;;;;;2.22;2.13;;;;;14.00;97054.00;;;;8314085;28;21097;-66
2022/07/13 01:38:51;;;;;;;3.35;2.10;;;;;13.90;97053.00;;;;8319486;28;20237;-65
2022/07/13 01:42:56;;;;;;;2.17;2.00;;;;;13.90;97058.00;;;;8327959;28;20240;-66
2022/07/13 01:47:07;;;;;;;2.50;1.92;;;;;13.80;97057.00;;;;8333733;28;20232;-66
2022/07/13 01:51:10;;;;;;;4.70;2.75;;;;;13.80;97054.00;;;;8319533;28;20339;-66
2022/07/13 01:55:17;;;;;;;5.40;2.20;;;;;13.80;97052.00;;;;8332229;28;20753;-66
2022/07/13 01:59:22;;;;;;;4.85;2.30;;;;;13.70;97047.00;;;;8314181;28;20227;-66
2022/07/13 02:03:25;;;;;;;8.60;2.65;;;;;13.70;97053.00;;;;8325260;28;20242;-66
2022/07/13 02:07:29;;;;;;;2.35;2.25;;;;;13.60;97051.00;;;;8310875;28;20231;-66
2022/07/13 02:11:32;;;;;;;2.50;2.00;;;;;13.70;97057.00;;;;8326902;28;20326;-66
2022/07/13 02:15:37;;;;;;;2.55;2.40;;;;;13.60;97042.00;;;;8328321;28;20234;-66
2022/07/13 02:19:40;;;;;;;6.35;2.30;;;;;13.50;97045.00;;;;8315807;28;20242;-66
2022/07/13 02:23:43;;;;;;;2.30;2.10;;;;;13.40;97044.00;;;;8325020;28;20334;-66
2022/07/13 02:27:46;;;;;;;3.92;2.42;;;;;13.30;97047.00;;;;8315228;28;20216;-66
2022/07/13 02:31:51;;;;;;;2.83;2.63;;;;;13.30;97045.00;;;;8313909;28;20248;-67
2022/07/13 02:35:54;;;;;;;2.22;2.03;;;;;13.30;97051.00;;;;8332817;28;20237;-67
2022/07/13 02:39:57;;;;;;;2.53;2.42;;;;;13.30;97048.00;;;;8322613;28;20229;-66
2022/07/13 02:44:01;;;;;;;4.30;2.22;;;;;13.20;97045.00;;;;8320786;28;20237;-67
2022/07/13 02:48:06;;;;;;;2.53;2.20;;;;;13.20;97044.00;;;;8318241;28;20233;-67
2022/07/13 02:52:09;;;;;;;2.10;2.00;;;;;13.00;97044.00;;;;8319505;28;20257;-67
2022/07/13 02:56:12;;;;;;;2.33;2.22;;;;;13.00;97034.00;;;;8318841;28;20692;-67
2022/07/13 03:04:40;;;;;;;7.65;2.80;;;;;12.90;97036.00;;;;8279577;23;20806;-67
2022/07/13 03:08:43;;;;;;;2.70;2.50;;;;;12.80;97027.00;;;;8280970;28;20214;-66
2022/07/13 03:12:46;;;;;;;3.38;2.38;;;;;12.80;97032.00;;;;8280844;28;20242;-67
2022/07/13 03:16:50;;;;;;;2.78;2.58;;;;;12.80;97034.00;;;;8295795;28;20582;-67
2022/07/13 03:20:54;;;;;;;2.60;2.40;;;;;12.80;97042.00;;;;8284767;28;20303;-67
2022/07/13 03:24:58;;;;;;;2.70;2.50;;;;;12.80;97047.00;;;;8278375;28;20230;-65
2022/07/13 03:29:01;;;;;;;2.92;2.72;;;;;12.80;97043.00;;;;8275852;28;20278;-66
2022/07/13 03:33:04;;;;;;;2.75;2.47;;;;;12.90;97041.00;;;;8269496;28;20233;-66
2022/07/13 03:37:09;;;;;;;2.63;2.42;;;;;13.00;97044.00;;;;8271437;28;20711;-66
2022/07/13 03:41:12;;;;;;;2.70;2.50;;;;;13.00;97045.00;;;;8274044;28;20229;-65
2022/07/13 03:45:15;;;;;;;2.92;2.63;;;;;13.20;97044.00;;;;8281018;28;20285;-65
2022/07/13 03:49:18;;;;;;;3.63;2.50;;;;;13.40;97036.00;;;;8285020;28;20317;-66
2022/07/13 03:53:23;;;;;;;2.40;2.20;;;;;13.60;97035.00;;;;8286329;28;20231;-64
2022/07/13 03:57:26;;;;;;;3.38;2.47;;;;;13.70;97029.00;;;;8274480;28;20353;-66
2022/07/13 04:01:29;;;;;;;2.50;2.40;;;;;13.80;97033.00;;;;8270158;28;20698;-66
2022/07/13 04:05:33;;;;;;;2.85;2.65;;;;;13.80;97021.00;;;;8283375;28;20231;-66
2022/07/13 04:09:37;;;;;;;2.67;2.47;;;;;14.00;97023.00;;;;8272024;28;20238;-65
2022/07/13 04:13:41;;;;;;;2.42;2.28;;;;;14.20;97021.00;;;;8280051;28;20228;-65
2022/07/13 04:17:45;;;;;;;3.30;3.00;;;;;14.30;97016.00;;;;8263070;28;20636;-65
2022/07/13 04:21:48;;;;;;;2.67;2.50;;;;;14.30;97015.00;;;;8285208;28;20257;-66
2022/07/13 04:25:58;;;;;;;3.03;2.63;;;;;14.40;97016.00;;;;8275536;28;20686;-65
2022/07/13 04:30:02;;;;;;;2.60;2.40;;;;;14.50;97005.00;;;;8263105;28;20236;-66
2022/07/13 04:34:05;;;;;;;3.40;3.08;;;;;14.60;97017.00;;;;8284853;28;20221;-66
2022/07/13 04:38:08;;;;;;;4.05;2.60;;;;;14.60;97018.00;;;;8272357;28;20586;-64
2022/07/13 04:42:13;;;;;;;2.92;2.33;;;;;14.70;97028.00;;;;8279744;28;20720;-65
2022/07/13 04:46:16;;;;;;;3.80;2.70;;;;;14.80;97034.00;;;;8282618;28;20325;-65
2022/07/13 04:50:20;;;;;;;2.63;2.42;;;;;15.20;97022.00;;;;8284739;28;20234;-65
2022/07/13 04:54:23;;;;;;;2.40;2.30;;;;;15.50;97019.00;;;;8266855;28;20248;-65
2022/07/13 04:58:27;;;;;;;2.83;2.53;;;;;15.70;97017.00;;;;8280982;28;20718;-66
2022/07/13 05:02:31;;;;;;;4.13;2.60;;;;;15.90;97024.00;;;;8268961;28;20503;-65
2022/07/13 05:06:34;;;;;;;2.58;2.30;;;;;16.60;97004.00;;;;8269499;28;20245;-66
2022/07/13 05:10:38;;;;;;;2.30;2.20;;;;;17.00;96998.00;;;;8278774;28;20228;-64
2022/07/13 05:14:42;;;;;;;3.10;2.80;;;;;17.10;97005.00;;;;8280618;28;20225;-65
2022/07/13 05:18:46;;;;;;;3.00;2.80;;;;;17.20;97000.00;;;;8281961;28;20316;-65
2022/07/13 05:22:49;;;;;;;3.05;2.75;;;;;17.30;96992.00;;;;8270679;28;20234;-64
2022/07/13 05:26:53;;;;;;;3.10;2.80;;;;;17.60;97002.00;;;;8288057;28;20226;-64
2022/07/13 05:30:58;;;;;;;3.95;2.25;;;;;17.80;97009.00;;;;8282602;28;20225;-66
2022/07/13 05:35:02;;;;;;;2.38;2.28;;;;;18.10;97019.00;;;;8277448;28;20306;-66
2022/07/13 05:39:05;;;;;;;3.72;2.63;;;;;18.30;97025.00;;;;8274810;28;20313;-67
2022/07/13 05:43:09;;;;;;;4.32;2.70;;;;;18.70;97028.00;;;;8277382;28;20226;-65
2022/07/13 05:47:13;;;;;;;7.32;2.67;;;;;19.20;97024.00;;;;8270033;28;20229;-66
2022/07/13 05:51:17;;;;;;;4.97;2.38;;;;;19.80;97025.00;;;;8272718;28;20240;-65
2022/07/13 05:55:37;;;;;;;2.05;1.95;;;;;20.20;97018.00;;;;8275269;28;20226;-66
2022/07/13 05:59:40;;;;;;;2.28;2.03;;;;;20.60;97031.00;;;;8268859;28;20236;-68
2022/07/13 06:03:44;;;;;;;3.65;1.90;;;;;20.90;97018.00;;;;8275350;28;20321;-67
2022/07/13 06:07:48;;;;;;;1.98;1.88;;;;;21.40;97033.00;;;;8274971;28;20436;-69
2022/07/13 06:11:51;;;;;;;2.80;1.70;;;;;21.90;97023.00;;;;8271108;28;20557;-67
2022/07/13 06:15:56;;;;;;;2.28;1.70;;;;;22.30;97025.00;;;;8277087;28;20755;-66
2022/07/13 06:20:01;;;;;;;3.22;1.90;;;;;22.90;97021.00;;;;8279354;28;20348;-65
2022/07/13 06:24:05;;;;;;;2.67;1.90;;;;;23.40;97007.00;;;;8273060;28;20251;-66
2022/07/13 06:28:09;;;;;;;3.40;2.00;;;;;23.80;97014.00;;;;8278131;28;20687;-67
2022/07/13 06:32:12;;;;;;;2.55;1.73;;;;;24.20;97023.00;;;;8280406;28;20662;-65
2022/07/13 06:36:16;;;;;;;3.95;1.90;;;;;25.00;97031.00;;;;8265988;28;20690;-67
2022/07/13 06:40:20;;;;;;;1.70;1.60;;;;;25.90;97039.00;;;;8272005;28;20233;-66
2022/07/13 06:44:23;;;;;;;2.80;1.60;;;;;26.90;97034.00;;;;8270683;28;20254;-67
2022/07/13 06:48:26;;;;;;;2.10;1.88;;;;;27.80;97040.00;;;;8281550;28;20308;-66
2022/07/13 06:52:31;;;;;;;1.33;1.33;;;;;28.40;97034.00;;;;8288928;28;20241;-66
2022/07/13 06:56:34;;;;;;;1.70;1.60;;;;;29.00;97033.00;;;;8287873;28;20762;-66
2022/07/13 07:00:38;;;;;;;1.67;1.58;;;;;29.50;97023.00;;;;8289701;28;20321;-67
2022/07/13 07:04:41;;;;;;;1.70;1.60;;;;;29.80;97033.00;;;;8288263;28;20677;-67
2022/07/13 07:08:48;;;;;;;3.67;1.60;;;;;30.20;97041.00;;;;8270419;28;20218;-66
2022/07/13 07:12:52;;;;;;;5.38;1.60;;;;;30.60;97034.00;;;;8290548;28;20233;-66
2022/07/13 07:16:56;;;;;;;3.25;1.20;;;;;30.90;97029.00;;;;8285258;28;20241;-66
2022/07/13 07:21:00;;;;;;;1.60;1.50;;;;;31.30;97031.00;;;;8275452;28;20229;-66
2022/07/13 07:25:05;;;;;;;3.03;1.40;;;;;32.00;97034.00;;;;8277566;28;20287;-66
2022/07/13 07:29:09;;;;;;;1.30;1.30;;;;;32.20;97039.00;;;;8280214;28;20312;-67
2022/07/13 07:33:12;;;;;;;3.88;1.52;;;;;32.00;97042.00;;;;8286876;28;20225;-66
2022/07/13 07:37:15;;;;;;;1.30;1.00;;;;;32.00;97042.00;;;;8281054;28;20240;-66
2022/07/13 07:41:20;;;;;;;1.15;1.13;;;;;32.00;97046.00;;;;8277783;28;20772;-65
2022/07/13 07:45:23;;;;;;;1.77;1.20;;;;;32.30;97042.00;;;;8283514;28;21000;-65
2022/07/13 07:49:26;;;;;;;1.50;1.00;;;;;32.70;97038.00;;;;8280614;28;20226;-66
2022/07/13 07:53:29;;;;;;;1.10;1.10;;;;;32.40;97032.00;;;;8273496;28;20695;-65
2022/07/13 07:57:44;;;;;;;1.98;1.00;;;;;32.20;97033.00;;;;8284531;28;20301;-65
2022/07/13 08:01:47;;;;;;;3.08;1.00;;;;;32.30;97018.00;;;;8285420;28;20313;-66
2022/07/13 08:05:52;;;;;;;1.73;1.05;;;;;32.10;97013.00;;;;8274250;28;20264;-65
2022/07/13 08:09:55;;;;;;;1.33;1.23;;;;;32.00;97024.00;;;;8270461;28;20233;-65
2022/07/13 08:14:00;;;;;;;2.13;1.02;;;;;31.80;97022.00;;;;8276265;28;20555;-66
2022/07/13 08:18:04;;;;;;;1.00;1.00;;;;;32.90;97019.00;;;;8282338;28;20849;-65
2022/07/13 08:22:08;;;;;;;1.00;1.00;;;;;33.50;97019.00;;;;8281107;28;20650;-65
2022/07/13 08:26:11;;;;;;;2.85;1.20;;;;;34.10;97020.00;;;;8280206;28;20234;-66
2022/07/13 08:30:18;;;;;;;1.77;1.15;;;;;33.90;97022.00;;;;8274821;28;20233;-66
2022/07/13 08:38:43;;;;;;;1.55;1.00;;;;;34.50;97011.00;;;;8280379;28;20237;-66
2022/07/13 08:42:47;;;;;;;1.67;1.00;;;;;34.60;97012.00;;;;8272130;28;20317;-65
2022/07/13 08:46:51;;;;;;;1.23;1.13;;;;;34.30;97014.00;;;;8276175;28;20217;-66
2022/07/13 08:50:55;;;;;;;1.65;1.00;;;;;34.10;97011.00;;;;8279266;28;20237;-66
2022/07/13 08:54:59;;;;;;;1.48;1.17;;;;;33.80;97012.00;;;;8275898;28;20228;-66
2022/07/13 08:59:02;;;;;;;2.00;1.00;;;;;33.60;97009.00;;;;8269361;28;20233;-65
2022/07/13 09:03:06;;;;;;;0.85;0.85;;;;;34.00;97003.00;;;;8291434;28;20226;-66
2022/07/13 09:07:11;;;;;;;1.10;0.90;;;;;34.50;97001.00;;;;8280461;28;20240;-66
2022/07/13 09:11:14;;;;;;;1.20;1.20;;;;;34.70;97006.00;;;;8260079;28;20220;-66
2022/07/13 09:15:17;;;;;;;8.57;1.35;;;;;34.80;97019.00;;;;8274307;28;20234;-66
2022/07/13 09:19:26;;;;;;;1.75;0.90;;;;;35.20;97009.00;;;;8268778;28;20231;-66
2022/07/13 09:23:30;;;;;;;1.75;1.00;;;;;35.20;97009.00;;;;8270688;28;20250;-65
2022/07/13 09:27:46;;;;;;;1.10;1.10;;;;;35.00;97010.00;;;;8281169;28;20717;-65
2022/07/13 09:31:50;;;;;;;1.90;1.20;;;;;34.70;97019.00;;;;8280929;28;20222;-65
2022/07/13 09:35:56;;;;;;;1.20;1.10;;;;;34.90;97017.00;;;;8272476;28;20309;-66
2022/07/13 09:40:06;;;;;;;1.05;1.05;;;;;35.30;97012.00;;;;8270387;28;20970;-66
2022/07/13 09:48:30;;;;;;;1.45;0.95;;;;;36.00;97004.00;;;;8281744;28;20221;-66
2022/07/13 09:52:35;;;;;;;1.88;1.17;;;;;36.40;97000.00;;;;8276256;28;20257;-66
2022/07/13 09:56:47;;;;;;;1.20;1.20;;;;;36.40;97009.00;;;;8276399;28;20328;-66
2022/07/13 10:00:52;;;;;;;0.90;0.90;;;;;36.40;97001.00;;;;8260653;28;20353;-66
2022/07/13 10:04:58;;;;;;;1.27;1.00;;;;;37.00;97008.00;;;;8271417;28;20301;-66
2022/07/13 10:09:03;;;;;;;1.02;0.98;;;;;37.10;97005.00;;;;8277552;28;20574;-66
2022/07/13 10:13:07;;;;;;;2.17;1.10;;;;;36.90;97004.00;;;;8276410;28;20244;-66
2022/07/13 10:17:12;;;;;;;2.25;1.17;;;;;36.70;97005.00;;;;8269113;28;20230;-66
2022/07/13 10:21:26;;;;;;;2.15;1.00;;;;;37.10;97010.00;;;;8278925;28;20244;-67
2022/07/13 10:25:44;;;;;;;1.35;1.25;;;;;37.10;97011.00;;;;8274763;28;20317;-66
2022/07/13 10:29:49;;;;;;;2.47;0.90;;;;;37.30;97004.00;;;;8274456;28;20264;-66
2022/07/13 10:33:52;;;;;;;1.02;1.02;;;;;37.80;97010.00;;;;8275250;28;20260;-66
2022/07/13 10:38:22;;;;;;;3.40;1.33;;;;;37.70;97008.00;;;;8272143;28;20261;-66
2022/07/13 10:42:27;;;;;;;1.00;1.00;;;;;37.80;96997.00;;;;8260390;28;20218;-66
2022/07/13 10:46:49;;;;;;;2.60;1.00;;;;;37.20;96990.00;;;;8272017;28;20237;-66
2022/07/13 10:50:55;;;;;;;0.90;0.90;;;;;37.50;97001.00;;;;8274218;28;20271;-66
2022/07/13 10:55:24;;;;;;;1.75;0.85;;;;;37.80;96989.00;;;;8275147;28;20218;-66
2022/07/13 10:59:48;;;;;;;0.85;0.85;;;;;38.40;96987.00;;;;8272024;28;20678;-66
2022/07/13 11:03:52;;;;;;;3.25;0.80;;;;;39.40;96980.00;;;;8274459;28;20238;-66
2022/07/13 11:07:55;;;;;;;1.17;0.80;;;;;39.60;96986.00;;;;8279936;28;20238;-66
2022/07/13 11:11:58;;;;;;;1.02;0.70;;;;;39.50;96976.00;;;;8278123;28;20325;-66
2022/07/13 11:16:03;;;;;;;0.90;0.90;;;;;39.40;96975.00;;;;8271695;28;20672;-66
2022/07/13 11:20:09;;;;;;;0.82;0.82;;;;;39.40;96973.00;;;;8278459;28;20705;-66
2022/07/13 11:28:48;;;;;;;3.60;0.90;;;;;39.20;96974.00;;;;8267032;28;20309;-65
2022/07/13 11:32:53;;;;;;;1.15;0.95;;;;;39.20;96972.00;;;;8279965;28;20808;-66
2022/07/13 11:36:58;;;;;;;1.00;1.00;;;;;38.70;96962.00;;;;8279349;28;20234;-66
2022/07/13 11:41:01;;;;;;;0.90;0.90;;;;;38.40;96967.00;;;;8279049;28;20236;-66
2022/07/13 11:45:05;;;;;;;2.00;1.00;;;;;37.90;96962.00;;;;8279512;28;20301;-65
2022/07/13 11:49:10;;;;;;;0.98;0.98;;;;;38.20;96953.00;;;;8270250;28;20230;-65
2022/07/13 11:53:28;;;;;;;0.90;0.90;;;;;38.30;96959.00;;;;8275269;28;20332;-65
2022/07/13 11:57:32;;;;;;;2.47;1.00;;;;;38.40;96945.00;;;;8277467;28;20316;-65
2022/07/13 12:01:35;;;;;;;3.63;1.00;;;;;39.90;96942.00;;;;8263387;28;20317;-66
2022/07/13 12:05:44;;;;;;;1.80;1.05;;;;;40.50;96937.00;;;;8269522;28;20225;-65
2022/07/13 12:09:49;;;;;;;8.68;1.30;;;;;41.30;96928.00;;;;8281714;28;20230;-66
2022/07/13 12:13:52;;;;;;;1.45;1.08;;;;;41.50;96929.00;;;;8281784;28;20225;-66
2022/07/13 12:17:58;;;;;;;3.92;1.00;;;;;41.70;96917.00;;;;8274978;28;20309;-65
2022/07/13 12:22:06;;;;;;;4.45;1.00;;;;;39.70;96913.00;;;;8278998;28;20248;-64
2022/07/13 12:26:11;;;;;;;0.98;0.98;;;;;38.90;96912.00;;;;8279006;28;20218;-65
2022/07/13 12:30:15;;;;;;;1.00;1.00;;;;;40.00;96904.00;;;;8278421;28;20226;-65
2022/07/13 12:34:20;;;;;;;1.30;1.20;;;;;39.00;96906.00;;;;8285993;28;20233;-65
2022/07/13 12:38:25;;;;;;;0.90;0.90;;;;;38.80;96895.00;;;;8275823;28;20225;-66
2022/07/13 12:42:28;;;;;;;3.95;1.00;;;;;38.70;96890.00;;;;8282985;28;20705;-65
2022/07/13 12:46:54;;;;;;;0.98;0.98;;;;;39.00;96893.00;;;;8287630;28;20243;-65
2022/07/13 12:51:00;;;;;;;1.63;0.90;;;;;38.20;96895.00;;;;8274990;28;20221;-65
2022/07/13 12:55:05;;;;;;;1.88;0.82;;;;;38.50;96888.00;;;;8286196;28;20256;-65
2022/07/13 12:59:09;;;;;;;1.00;1.00;;;;;38.20;96890.00;;;;8268967;28;20613;-65
2022/07/13 13:03:12;;;;;;;0.93;0.90;;;;;37.90;96885.00;;;;8286970;28;20660;-66
2022/07/13 13:07:17;;;;;;;1.08;1.08;;;;;38.00;96882.00;;;;8279691;28;20963;-66
2022/07/13 13:11:25;;;;;;;0.80;0.80;;;;;38.10;96879.00;;;;8282541;28;20234;-66
2022/07/13 13:15:28;;;;;;;1.15;1.00;;;;;38.20;96879.00;;;;8286645;28;20317;-66
2022/07/13 13:19:31;;;;;;;1.23;0.90;;;;;38.20;96879.00;;;;8281324;28;20237;-68
2022/07/13 13:23:55;;;;;;;0.82;0.82;;;;;38.00;96866.00;;;;8280282;28;20238;-68
2022/07/13 13:28:00;;;;;;;1.02;0.90;;;;;37.70;96871.00;;;;8275559;28;20317;-68
2022/07/13 13:32:07;;;;;;;1.85;0.75;;;;;37.40;96866.00;;;;8267182;28;20222;-68
2022/07/13 13:36:10;;;;;;;0.80;0.80;;;;;37.40;96854.00;;;;8254459;28;20237;-67
2022/07/13 13:40:13;;;;;;;1.35;0.80;;;;;37.20;96852.00;;;;8272988;28;20284;-66
2022/07/13 13:44:18;;;;;;;0.80;0.80;;;;;36.90;96854.00;;;;8280338;28;20214;-66
2022/07/13 13:48:21;;;;;;;1.35;1.05;;;;;36.60;96861.00;;;;8272926;28;20226;-67
2022/07/13 13:52:25;;;;;;;0.80;0.80;;;;;36.70;96843.00;;;;8265631;28;20972;-67
2022/07/13 13:56:28;;;;;;;0.60;0.60;;;;;37.30;96831.00;;;;8277563;28;20617;-67
2022/07/13 14:00:34;;;;;;;1.00;1.00;;;;;37.30;96830.00;;;;8277719;28;20351;-67
2022/07/13 14:04:38;;;;;;;0.70;0.70;;;;;37.30;96822.00;;;;8263207;28;20256;-67
2022/07/13 14:08:43;;;;;;;1.00;1.00;;;;;37.30;96827.00;;;;8272766;28;20226;-67
2022/07/13 14:12:47;;;;;;;2.28;0.90;;;;;37.40;96823.00;;;;8280640;28;20313;-67
2022/07/13 14:16:52;;;;;;;0.70;0.70;;;;;37.70;96817.00;;;;8277368;28;20700;-67
2022/07/13 14:20:57;;;;;;;0.80;0.80;;;;;37.90;96815.00;;;;8279923;28;20763;-67
2022/07/13 14:25:01;;;;;;;1.13;0.85;;;;;37.90;96809.00;;;;8272472;28;20357;-67
2022/07/13 14:29:04;;;;;;;0.63;0.60;;;;;37.60;96812.00;;;;8274571;28;20226;-67
2022/07/13 14:33:10;;;;;;;0.93;0.68;;;;;37.60;96814.00;;;;8265381;28;20235;-66
2022/07/13 14:37:15;;;;;;;1.95;0.80;;;;;37.80;96802.00;;;;8264442;28;20233;-67
2022/07/13 14:41:19;;;;;;;0.88;0.88;;;;;37.90;96794.00;;;;8275385;28;22160;-67
2022/07/13 14:45:22;;;;;;;0.70;0.70;;;;;37.90;96794.00;;;;8275298;28;20282;-67
2022/07/13 14:49:27;;;;;;;3.30;0.90;;;;;38.00;96794.00;;;;8266993;28;20237;-67
2022/07/13 14:53:56;;;;;;;0.80;0.70;;;;;37.90;96797.00;;;;8277266;28;20221;-67
2022/07/13 14:58:01;;;;;;;2.10;0.90;;;;;37.40;96795.00;;;;8282596;28;20232;-66
2022/07/13 15:02:04;;;;;;;1.48;0.82;;;;;36.90;96795.00;;;;8270713;28;20663;-67
2022/07/13 15:06:09;;;;;;;2.47;0.80;;;;;36.40;96791.00;;;;8268011;28;20229;-67
2022/07/13 15:10:15;;;;;;;0.80;0.70;;;;;35.90;96785.00;;;;8270608;28;20236;-66
2022/07/13 15:14:35;;;;;;;0.82;0.80;;;;;35.70;96782.00;;;;8281905;28;20995;-66
2022/07/13 15:18:39;;;;;;;1.00;0.90;;;;;35.30;96788.00;;;;8285837;28;21008;-66
2022/07/13 15:22:44;;;;;;;0.80;0.80;;;;;35.20;96788.00;;;;8271893;28;20276;-67
2022/07/13 15:26:53;;;;;;;0.93;0.93;;;;;35.10;96781.00;;;;8282117;28;20283;-66
2022/07/13 15:30:56;;;;;;;1.00;1.00;;;;;35.20;96780.00;;;;8285615;28;20663;-66
2022/07/13 15:35:00;;;;;;;5.68;1.30;;;;;35.20;96776.00;;;;8282583;28;20222;-66
2022/07/13 15:39:05;;;;;;;0.90;0.90;;;;;35.20;96770.00;;;;8278385;28;20232;-66
2022/07/13 15:43:08;;;;;;;1.33;0.98;;;;;35.00;96776.00;;;;8290254;28;20225;-66
2022/07/13 15:47:12;;;;;;;2.50;1.00;;;;;35.00;96768.00;;;;8286192;28;20232;-66
2022/07/13 15:51:15;;;;;;;0.80;0.80;;;;;35.10;96758.00;;;;8282375;28;20263;-66
2022/07/13 15:55:20;;;;;;;1.75;1.00;;;;;35.20;96765.00;;;;8285473;28;20226;-67
2022/07/13 15:59:23;;;;;;;2.13;0.93;;;;;35.10;96770.00;;;;8277087;28;20236;-67
2022/07/13 16:03:26;;;;;;;2.53;1.00;;;;;34.90;96756.00;;;;8280261;28;20350;-67
2022/07/13 16:07:30;;;;;;;1.02;1.02;;;;;35.50;96744.00;;;;8286156;28;20647;-67
2022/07/13 16:11:34;;;;;;;7.13;1.20;;;;;36.90;96749.00;;;;8285519;28;20313;-66
2022/07/13 16:15:38;;;;;;;1.10;1.10;;;;;38.00;96751.00;;;;8277178;28;20749;-67
2022/07/13 16:19:41;;;;;;;0.93;0.93;;;;;38.40;96736.00;;;;8280801;28;20977;-67
2022/07/13 16:23:52;;;;;;;1.45;1.10;;;;;38.50;96749.00;;;;8279373;28;20229;-67
2022/07/13 16:27:57;;;;;;;1.08;1.00;;;;;38.20;96748.00;;;;8272163;28;20254;-67
2022/07/13 16:32:00;;;;;;;0.95;0.95;;;;;37.80;96734.00;;;;8266984;28;20621;-67
2022/07/13 16:36:03;;;;;;;1.00;1.00;;;;;37.60;96734.00;;;;8286605;28;20301;-66
2022/07/13 16:40:08;;;;;;;1.35;1.15;;;;;38.50;96731.00;;;;8279168;28;20259;-67
2022/07/13 16:44:14;;;;;;;1.65;1.20;;;;;39.80;96721.00;;;;8282767;28;20226;-67
2022/07/13 16:48:18;;;;;;;1.10;1.10;;;;;40.60;96734.00;;;;8277843;28;20242;-67
2022/07/13 16:52:23;;;;;;;1.10;1.00;;;;;40.80;96734.00;;;;8283285;28;20245;-67
2022/07/13 16:56:26;;;;;;;3.03;0.85;;;;;41.10;96730.00;;;;8269186;28;20226;-67
2022/07/13 17:00:31;;;;;;;1.10;0.73;;;;;41.30;96734.00;;;;8279972;28;20626;-67
2022/07/13 17:04:35;;;;;;;0.77;0.77;;;;;40.00;96740.00;;;;8275680;28;20246;-67
2022/07/13 17:08:39;;;;;;;9.50;1.27;;;;;38.90;96734.00;;;;8272130;28;20317;-67
2022/07/13 17:12:42;;;;;;;2.90;0.90;;;;;37.90;96735.00;;;;8279899;28;20966;-67
2022/07/13 17:16:54;;;;;;;0.88;0.82;;;;;37.00;96735.00;;;;8280314;28;20234;-67
2022/07/13 17:20:58;;;;;;;1.27;0.90;;;;;36.40;96748.00;;;;8269160;28;20312;-67
2022/07/13 17:25:01;;;;;;;2.83;0.90;;;;;36.10;96747.00;;;;8278399;28;20304;-67
2022/07/13 17:29:04;;;;;;;2.05;1.02;;;;;35.40;96741.00;;;;8281603;28;20245;-67
2022/07/13 17:33:09;;;;;;;1.05;1.05;;;;;35.00;96749.00;;;;8268508;28;20592;-67
2022/07/13 17:37:12;;;;;;;1.45;1.10;;;;;34.60;96739.00;;;;8274312;28;20289;-67
2022/07/13 17:41:15;;;;;;;4.03;0.98;;;;;34.20;96732.00;;;;8275896;28;20230;-67
2022/07/13 17:45:19;;;;;;;1.88;0.90;;;;;33.80;96735.00;;;;8283095;28;20221;-66
2022/07/13 17:49:24;;;;;;;4.07;1.00;;;;;33.40;96733.00;;;;8295207;28;20659;-66
2022/07/13 17:53:29;;;;;;;1.00;1.00;;;;;33.00;96727.00;;;;8292309;28;20692;-66
2022/07/13 17:57:32;;;;;;;1.77;0.90;;;;;32.60;96726.00;;;;8278516;28;20234;-67
2022/07/13 18:01:35;;;;;;;4.22;0.75;;;;;32.20;96728.00;;;;8273678;28;20225;-66
2022/07/13 18:05:40;;;;;;;1.10;0.90;;;;;31.80;96716.00;;;;8280432;28;20579;-66
2022/07/13 18:09:43;;;;;;;1.13;0.80;;;;;31.20;96718.00;;;;8275541;28;20263;-66
2022/07/13 18:13:49;;;;;;;2.08;1.00;;;;;30.60;96714.00;;;;8286305;28;20226;-66
2022/07/13 18:17:53;;;;;;;0.93;0.93;;;;;30.10;96711.00;;;;8274767;28;20678;-66
2022/07/13 18:21:57;;;;;;;2.35;1.05;;;;;29.70;96703.00;;;;8275761;28;20293;-66
2022/07/13 18:26:00;;;;;;;0.93;0.93;;;;;29.20;96701.00;;;;8263418;28;20233;-66
2022/07/13 18:30:05;;;;;;;1.13;0.95;;;;;28.60;96693.00;;;;8272242;28;20967;-66
2022/07/13 18:34:10;;;;;;;1.17;1.17;;;;;28.20;96696.00;;;;8272595;28;20232;-66
2022/07/13 18:38:15;;;;;;;1.08;1.08;;;;;27.90;96697.00;;;;8277278;28;20226;-66
2022/07/13 18:42:18;;;;;;;2.17;1.00;;;;;27.50;96703.00;;;;8276073;28;20229;-67
2022/07/13 18:46:21;;;;;;;6.15;1.20;;;;;27.10;96702.00;;;;8270914;28;20333;-66
2022/07/13 18:50:24;;;;;;;1.10;1.10;;;;;26.60;96696.00;;;;8281521;28;20288;-65
2022/07/13 18:54:29;;;;;;;1.10;1.10;;;;;26.10;96696.00;;;;8272693;28;20236;-66
2022/07/13 18:58:33;;;;;;;1.17;1.17;;;;;25.70;96698.00;;;;8277634;28;20240;-66
2022/07/13 19:02:36;;;;;;;1.27;1.15;;;;;25.30;96696.00;;;;8281754;28;20236;-65
2022/07/13 19:06:39;;;;;;;2.42;1.20;;;;;24.90;96693.00;;;;8278605;28;20241;-66
2022/07/13 19:10:44;;;;;;;3.67;1.15;;;;;24.60;96701.00;;;;8276922;28;20226;-66
2022/07/13 19:14:47;;;;;;;1.45;1.20;;;;;24.30;96700.00;;;;8274571;28;20264;-66
2022/07/13 19:18:51;;;;;;;2.85;1.45;;;;;23.90;96701.00;;;;8275571;28;20300;-66
2022/07/13 19:22:54;;;;;;;1.00;1.00;;;;;23.60;96711.00;;;;8269379;28;20225;-66
2022/07/13 19:27:14;;;;;;;3.80;1.20;;;;;23.40;96719.00;;;;8269688;28;20231;-66
2022/07/13 19:31:17;;;;;;;2.55;1.40;;;;;23.10;96710.00;;;;8271087;28;20317;-66
2022/07/13 19:35:21;;;;;;;2.50;1.27;;;;;23.00;96710.00;;;;8277677;28;20226;-66
2022/07/13 19:39:24;;;;;;;1.17;1.17;;;;;22.80;96706.00;;;;8271719;28;20325;-65
2022/07/13 19:43:29;;;;;;;2.38;1.30;;;;;22.60;96714.00;;;;8275789;28;20241;-65
2022/07/13 19:47:32;;;;;;;1.42;1.30;;;;;22.40;96718.00;;;;8272602;28;20254;-65
2022/07/13 19:51:37;;;;;;;1.30;1.08;;;;;22.20;96718.00;;;;8269130;28;20237;-65
2022/07/13 19:55:40;;;;;;;4.30;1.40;;;;;22.10;96725.00;;;;8280220;28;20222;-66
2022/07/13 19:59:46;;;;;;;1.25;1.20;;;;;22.00;96724.00;;;;8277650;28;20253;-65
2022/07/13 20:03:57;;;;;;;1.67;1.25;;;;;22.00;96726.00;;;;8281958;28;20646;-66
2022/07/13 20:08:02;;;;;;;1.95;1.40;;;;;22.00;96730.00;;;;8275316;28;20258;-65
2022/07/13 20:12:25;;;;;;;1.10;1.10;;;;;22.00;96723.00;;;;8279002;28;20614;-65
2022/07/13 20:16:30;;;;;;;1.90;1.20;;;;;22.00;96732.00;;;;8269262;28;20313;-64
2022/07/13 20:20:39;;;;;;;1.40;1.27;;;;;22.10;96732.00;;;;8274473;28;20262;-65
2022/07/13 20:24:42;;;;;;;0.98;0.98;;;;;22.20;96735.00;;;;8278455;28;20240;-64
2022/07/13 20:28:47;;;;;;;3.65;1.10;;;;;22.30;96728.00;;;;8287763;28;20240;-63
2022/07/13 20:32:51;;;;;;;1.33;1.10;;;;;22.30;96731.00;;;;8254746;28;20225;-64
2022/07/13 20:36:55;;;;;;;1.60;1.33;;;;;22.30;96732.00;;;;8273640;28;20234;-64
2022/07/13 20:40:58;;;;;;;1.15;1.05;;;;;22.30;96732.00;;;;8275959;28;20312;-64
2022/07/13 20:45:02;;;;;;;1.42;1.15;;;;;22.30;96729.00;;;;8279623;28;20280;-64